sensor_id;sensor_type;location;lat;lon;timestamp;P1;durP1;ratioP1;P2;durP2;ratioP2
22378;SDS011;11357;49.990;7.370;2024-02-21T02:18:25;57.70;;;18.10;;
22378;SDS011;11357;49.990;7.370;2024-02-21T02:20:51;55.47;;;20.00;;
22378;SDS011;11357;49.990;7.370;2024-02-21T02:23:30;97.10;;;21.37;;
22378;SDS011;11357;49.990;7.370;2024-02-21T02:25:56;221.47;;;36.70;;
22378;SDS011;11357;49.990;7.370;2024-02-21T04:14:47;196.50;;;65.10;;
22378;SDS011;11357;49.990;7.370;2024-02-21T07:13:36;96.07;;;23.00;;
22378;SDS011;11357;49.990;7.370;2024-02-21T07:16:02;79.83;;;21.87;;
22378;SDS011;11357;49.990;7.370;2024-02-21T14:08:50;1999.90;;;999.90;;
22378;SDS011;11357;49.990;7.370;2024-02-21T14:11:16;1999.90;;;999.90;;
22378;SDS011;11357;49.990;7.370;2024-02-21T14:13:42;1999.90;;;999.90;;
22378;SDS011;11357;49.990;7.370;2024-02-21T14:16:11;1999.90;;;999.90;;
22378;SDS011;11357;49.990;7.370;2024-02-21T14:18:38;1999.90;;;999.90;;
22378;SDS011;11357;49.990;7.370;2024-02-21T14:21:12;1999.90;;;999.90;;
22378;SDS011;11357;49.990;7.370;2024-02-21T14:23:38;1999.90;;;999.90;;
22378;SDS011;11357;49.990;7.370;2024-02-21T14:26:04;1999.90;;;999.90;;
22378;SDS011;11357;49.990;7.370;2024-02-21T14:28:31;1999.90;;;999.90;;
22378;SDS011;11357;49.990;7.370;2024-02-21T14:30:59;1999.90;;;999.90;;
22378;SDS011;11357;49.990;7.370;2024-02-21T14:33:25;1999.90;;;999.90;;
22378;SDS011;11357;49.990;7.370;2024-02-21T14:35:52;1999.90;;;999.90;;
22378;SDS011;11357;49.990;7.370;2024-02-21T14:38:18;1999.90;;;999.90;;
22378;SDS011;11357;49.990;7.370;2024-02-21T14:40:44;1999.90;;;999.90;;
22378;SDS011;11357;49.990;7.370;2024-02-21T14:43:10;1999.90;;;999.90;;
22378;SDS011;11357;49.990;7.370;2024-02-21T14:45:36;1999.90;;;999.90;;
22378;SDS011;11357;49.990;7.370;2024-02-21T14:48:03;1999.90;;;999.90;;
22378;SDS011;11357;49.990;7.370;2024-02-21T14:50:29;1999.90;;;999.90;;
22378;SDS011;11357;49.990;7.370;2024-02-21T14:52:55;1999.90;;;999.90;;
22378;SDS011;11357;49.990;7.370;2024-02-21T14:55:21;1999.90;;;999.90;;
22378;SDS011;11357;49.990;7.370;2024-02-21T14:57:47;1999.90;;;999.90;;
22378;SDS011;11357;49.990;7.370;2024-02-21T15:00:13;1999.90;;;999.90;;
22378;SDS011;11357;49.990;7.370;2024-02-21T15:02:39;1999.90;;;999.90;;
22378;SDS011;11357;49.990;7.370;2024-02-21T15:05:05;1999.90;;;999.90;;
22378;SDS011;11357;49.990;7.370;2024-02-21T15:07:31;1999.90;;;999.90;;
22378;SDS011;11357;49.990;7.370;2024-02-21T15:09:58;1999.90;;;999.90;;
22378;SDS011;11357;49.990;7.370;2024-02-21T15:12:24;1999.90;;;999.90;;
22378;SDS011;11357;49.990;7.370;2024-02-21T15:14:50;1999.90;;;999.90;;
22378;SDS011;11357;49.990;7.370;2024-02-21T15:17:16;1999.90;;;999.90;;
22378;SDS011;11357;49.990;7.370;2024-02-21T15:19:43;1999.90;;;999.90;;
22378;SDS011;11357;49.990;7.370;2024-02-21T15:22:12;1999.90;;;999.90;;
22378;SDS011;11357;49.990;7.370;2024-02-21T15:24:41;1999.90;;;999.90;;
22378;SDS011;11357;49.990;7.370;2024-02-21T15:27:07;1999.90;;;999.90;;
22378;SDS011;11357;49.990;7.370;2024-02-21T15:29:34;1999.90;;;999.90;;
22378;SDS011;11357;49.990;7.370;2024-02-21T15:32:03;1999.90;;;999.90;;
22378;SDS011;11357;49.990;7.370;2024-02-21T15:34:29;1999.90;;;999.90;;
22378;SDS011;11357;49.990;7.370;2024-02-21T15:36:56;1999.90;;;999.90;;
22378;SDS011;11357;49.990;7.370;2024-02-21T15:39:21;1999.90;;;999.90;;
22378;SDS011;11357;49.990;7.370;2024-02-21T15:41:48;1999.90;;;999.90;;
22378;SDS011;11357;49.990;7.370;2024-02-21T15:44:14;1999.90;;;999.90;;
22378;SDS011;11357;49.990;7.370;2024-02-21T15:46:40;1999.90;;;999.90;;
22378;SDS011;11357;49.990;7.370;2024-02-21T15:49:05;1999.90;;;999.90;;
22378;SDS011;11357;49.990;7.370;2024-02-21T15:51:32;1999.90;;;999.90;;
22378;SDS011;11357;49.990;7.370;2024-02-21T15:54:00;1999.90;;;999.90;;
22378;SDS011;11357;49.990;7.370;2024-02-21T15:56:25;1999.90;;;999.90;;
22378;SDS011;11357;49.990;7.370;2024-02-21T15:58:52;1999.90;;;999.90;;
22378;SDS011;11357;49.990;7.370;2024-02-21T16:01:20;1999.90;;;999.90;;
22378;SDS011;11357;49.990;7.370;2024-02-21T16:03:46;1999.90;;;999.90;;
22378;SDS011;11357;49.990;7.370;2024-02-21T16:06:11;1999.90;;;999.90;;
22378;SDS011;11357;49.990;7.370;2024-02-21T16:08:37;1999.90;;;999.90;;
22378;SDS011;11357;49.990;7.370;2024-02-21T16:11:05;1999.90;;;999.90;;
22378;SDS011;11357;49.990;7.370;2024-02-21T16:13:33;1999.90;;;999.90;;
22378;SDS011;11357;49.990;7.370;2024-02-21T16:16:00;1999.90;;;999.90;;
22378;SDS011;11357;49.990;7.370;2024-02-21T16:18:26;1999.90;;;999.90;;
22378;SDS011;11357;49.990;7.370;2024-02-21T16:20:52;1999.90;;;999.90;;
22378;SDS011;11357;49.990;7.370;2024-02-21T16:23:18;1999.90;;;999.90;;
22378;SDS011;11357;49.990;7.370;2024-02-21T16:25:43;1999.90;;;999.90;;
22378;SDS011;11357;49.990;7.370;2024-02-21T16:28:09;1999.90;;;999.90;;
22378;SDS011;11357;49.990;7.370;2024-02-21T16:30:36;1999.90;;;999.90;;
22378;SDS011;11357;49.990;7.370;2024-02-21T16:33:01;1999.90;;;999.90;;
22378;SDS011;11357;49.990;7.370;2024-02-21T16:35:28;1999.90;;;999.90;;
22378;SDS011;11357;49.990;7.370;2024-02-21T16:37:54;1172.60;;;238.07;;
22378;SDS011;11357;49.990;7.370;2024-02-21T16:40:23;1108.17;;;225.37;;
22378;SDS011;11357;49.990;7.370;2024-02-21T16:42:48;1674.77;;;725.73;;
22378;SDS011;11357;49.990;7.370;2024-02-21T16:45:14;956.00;;;191.93;;
22378;SDS011;11357;49.990;7.370;2024-02-21T16:47:40;1567.00;;;383.53;;
22378;SDS011;11357;49.990;7.370;2024-02-21T16:50:08;1999.90;;;802.70;;
22378;SDS011;11357;49.990;7.370;2024-02-21T16:52:34;1533.20;;;368.27;;
22378;SDS011;11357;49.990;7.370;2024-02-21T16:54:59;1169.20;;;246.80;;
22378;SDS011;11357;49.990;7.370;2024-02-21T16:57:25;1999.90;;;287.97;;
22378;SDS011;11357;49.990;7.370;2024-02-21T16:59:51;1361.53;;;246.00;;
22378;SDS011;11357;49.990;7.370;2024-02-21T17:02:17;891.00;;;185.47;;
22378;SDS011;11357;49.990;7.370;2024-02-21T17:04:44;742.90;;;178.40;;
22378;SDS011;11357;49.990;7.370;2024-02-21T17:07:11;1279.80;;;300.27;;
22378;SDS011;11357;49.990;7.370;2024-02-21T17:09:37;1113.90;;;291.53;;
22378;SDS011;11357;49.990;7.370;2024-02-21T17:12:03;1731.57;;;336.87;;
22378;SDS011;11357;49.990;7.370;2024-02-21T17:14:32;1622.37;;;241.47;;
22378;SDS011;11357;49.990;7.370;2024-02-21T17:16:58;1954.00;;;393.00;;
22378;SDS011;11357;49.990;7.370;2024-02-21T17:19:24;1082.07;;;393.10;;
22378;SDS011;11357;49.990;7.370;2024-02-21T17:21:49;905.47;;;235.07;;
22378;SDS011;11357;49.990;7.370;2024-02-21T17:24:15;1645.43;;;339.73;;
22378;SDS011;11357;49.990;7.370;2024-02-21T17:26:40;1500.80;;;345.50;;
22378;SDS011;11357;49.990;7.370;2024-02-21T17:29:06;898.67;;;299.77;;
22378;SDS011;11357;49.990;7.370;2024-02-21T17:31:32;963.73;;;310.83;;
22378;SDS011;11357;49.990;7.370;2024-02-21T17:33:58;1784.57;;;732.60;;
22378;SDS011;11357;49.990;7.370;2024-02-21T17:36:24;1610.37;;;512.67;;
22378;SDS011;11357;49.990;7.370;2024-02-21T17:38:49;1999.90;;;999.90;;
22378;SDS011;11357;49.990;7.370;2024-02-21T17:41:16;814.13;;;221.63;;
22378;SDS011;11357;49.990;7.370;2024-02-21T17:43:43;1999.90;;;434.67;;
22378;SDS011;11357;49.990;7.370;2024-02-21T17:46:09;1139.07;;;273.27;;
22378;SDS011;11357;49.990;7.370;2024-02-21T17:48:36;1999.90;;;999.90;;
22378;SDS011;11357;49.990;7.370;2024-02-21T17:51:02;1621.67;;;740.53;;
22378;SDS011;11357;49.990;7.370;2024-02-21T17:53:28;1999.90;;;999.90;;
22378;SDS011;11357;49.990;7.370;2024-02-21T17:55:57;1423.90;;;678.80;;
22378;SDS011;11357;49.990;7.370;2024-02-21T17:58:23;1999.90;;;999.90;;
22378;SDS011;11357;49.990;7.370;2024-02-21T18:00:49;1999.90;;;999.90;;
22378;SDS011;11357;49.990;7.370;2024-02-21T18:03:16;1999.90;;;999.90;;
22378;SDS011;11357;49.990;7.370;2024-02-21T18:05:42;1999.90;;;999.90;;
22378;SDS011;11357;49.990;7.370;2024-02-21T18:08:09;1616.47;;;697.57;;
22378;SDS011;11357;49.990;7.370;2024-02-21T18:10:35;1571.23;;;714.37;;
22378;SDS011;11357;49.990;7.370;2024-02-21T18:13:04;1999.90;;;999.90;;
22378;SDS011;11357;49.990;7.370;2024-02-21T18:15:30;1999.90;;;999.90;;
22378;SDS011;11357;49.990;7.370;2024-02-21T18:17:57;1999.90;;;999.90;;
22378;SDS011;11357;49.990;7.370;2024-02-21T18:20:23;1999.90;;;999.90;;
22378;SDS011;11357;49.990;7.370;2024-02-21T18:22:49;1999.90;;;999.90;;
22378;SDS011;11357;49.990;7.370;2024-02-21T18:25:16;1999.90;;;999.90;;
22378;SDS011;11357;49.990;7.370;2024-02-21T18:27:42;1719.57;;;729.40;;
22378;SDS011;11357;49.990;7.370;2024-02-21T18:30:08;1999.90;;;999.90;;
22378;SDS011;11357;49.990;7.370;2024-02-21T18:32:34;1999.90;;;999.90;;
22378;SDS011;11357;49.990;7.370;2024-02-21T18:35:00;1578.17;;;706.23;;
22378;SDS011;11357;49.990;7.370;2024-02-21T18:37:26;1999.90;;;999.90;;
22378;SDS011;11357;49.990;7.370;2024-02-21T18:39:54;1764.27;;;755.67;;
22378;SDS011;11357;49.990;7.370;2024-02-21T18:42:20;1999.90;;;999.90;;
22378;SDS011;11357;49.990;7.370;2024-02-21T18:44:46;1046.27;;;375.43;;
22378;SDS011;11357;49.990;7.370;2024-02-21T18:47:11;963.87;;;270.30;;
22378;SDS011;11357;49.990;7.370;2024-02-21T18:49:37;1999.90;;;473.97;;
22378;SDS011;11357;49.990;7.370;2024-02-21T18:52:03;971.83;;;259.30;;
22378;SDS011;11357;49.990;7.370;2024-02-21T18:54:29;688.00;;;208.63;;
22378;SDS011;11357;49.990;7.370;2024-02-21T18:56:55;1999.90;;;426.20;;
22378;SDS011;11357;49.990;7.370;2024-02-21T18:59:20;832.63;;;183.57;;
22378;SDS011;11357;49.990;7.370;2024-02-21T19:01:46;1813.53;;;374.00;;
22378;SDS011;11357;49.990;7.370;2024-02-21T19:04:12;562.63;;;175.57;;
22378;SDS011;11357;49.990;7.370;2024-02-21T19:06:38;471.80;;;124.27;;
22378;SDS011;11357;49.990;7.370;2024-02-21T19:09:04;496.60;;;154.37;;
22378;SDS011;11357;49.990;7.370;2024-02-21T19:11:30;323.53;;;125.43;;
22378;SDS011;11357;49.990;7.370;2024-02-21T19:13:56;314.93;;;86.93;;
22378;SDS011;11357;49.990;7.370;2024-02-21T19:16:21;310.10;;;117.00;;
22378;SDS011;11357;49.990;7.370;2024-02-21T19:18:47;180.20;;;62.53;;
22378;SDS011;11357;49.990;7.370;2024-02-21T19:21:13;795.37;;;191.73;;
22378;SDS011;11357;49.990;7.370;2024-02-21T19:23:39;245.97;;;74.73;;
22378;SDS011;11357;49.990;7.370;2024-02-21T19:26:08;323.57;;;93.80;;
22378;SDS011;11357;49.990;7.370;2024-02-21T19:28:34;554.43;;;153.13;;
22378;SDS011;11357;49.990;7.370;2024-02-21T19:31:01;658.17;;;188.30;;
22378;SDS011;11357;49.990;7.370;2024-02-21T19:33:30;407.43;;;126.40;;
22378;SDS011;11357;49.990;7.370;2024-02-21T19:35:55;169.20;;;59.97;;
22378;SDS011;11357;49.990;7.370;2024-02-21T19:38:22;60.07;;;19.53;;
22378;SDS011;11357;49.990;7.370;2024-02-21T19:40:50;112.70;;;41.20;;
22378;SDS011;11357;49.990;7.370;2024-02-21T19:43:16;1128.27;;;170.73;;
22378;SDS011;11357;49.990;7.370;2024-02-21T19:45:43;229.57;;;56.27;;
22378;SDS011;11357;49.990;7.370;2024-02-21T19:48:11;101.80;;;43.07;;
22378;SDS011;11357;49.990;7.370;2024-02-21T19:50:38;69.90;;;22.97;;
22378;SDS011;11357;49.990;7.370;2024-02-21T19:53:06;102.20;;;38.37;;
22378;SDS011;11357;49.990;7.370;2024-02-21T19:55:32;295.60;;;52.03;;
22378;SDS011;11357;49.990;7.370;2024-02-21T19:57:58;71.63;;;22.50;;
22378;SDS011;11357;49.990;7.370;2024-02-21T20:00:24;272.43;;;44.33;;
22378;SDS011;11357;49.990;7.370;2024-02-21T20:02:49;438.63;;;94.97;;
22378;SDS011;11357;49.990;7.370;2024-02-21T20:05:17;1012.93;;;132.93;;
22378;SDS011;11357;49.990;7.370;2024-02-21T20:07:43;355.70;;;101.43;;
22378;SDS011;11357;49.990;7.370;2024-02-21T20:10:09;46.43;;;17.47;;
22378;SDS011;11357;49.990;7.370;2024-02-21T20:12:36;141.57;;;23.80;;
22378;SDS011;11357;49.990;7.370;2024-02-21T20:15:03;89.47;;;19.20;;
22378;SDS011;11357;49.990;7.370;2024-02-21T20:17:33;69.97;;;21.77;;
22378;SDS011;11357;49.990;7.370;2024-02-21T20:19:59;26.23;;;9.60;;
22378;SDS011;11357;49.990;7.370;2024-02-21T20:22:25;503.40;;;104.10;;
22378;SDS011;11357;49.990;7.370;2024-02-21T20:24:50;662.53;;;103.33;;
22378;SDS011;11357;49.990;7.370;2024-02-21T20:27:16;307.73;;;35.80;;
22378;SDS011;11357;49.990;7.370;2024-02-21T20:29:42;45.93;;;23.67;;
22378;SDS011;11357;49.990;7.370;2024-02-21T20:32:07;46.10;;;11.73;;
22378;SDS011;11357;49.990;7.370;2024-02-21T20:34:33;209.37;;;43.07;;
22378;SDS011;11357;49.990;7.370;2024-02-21T20:36:59;87.10;;;18.50;;
22378;SDS011;11357;49.990;7.370;2024-02-21T20:39:25;315.93;;;49.40;;
22378;SDS011;11357;49.990;7.370;2024-02-21T20:41:54;41.57;;;10.00;;
22378;SDS011;11357;49.990;7.370;2024-02-21T20:44:21;114.90;;;25.23;;
22378;SDS011;11357;49.990;7.370;2024-02-21T20:46:49;51.00;;;16.87;;
22378;SDS011;11357;49.990;7.370;2024-02-21T20:49:15;48.97;;;11.30;;
22378;SDS011;11357;49.990;7.370;2024-02-21T20:51:41;23.67;;;13.43;;
22378;SDS011;11357;49.990;7.370;2024-02-21T20:54:08;40.77;;;12.93;;
22378;SDS011;11357;49.990;7.370;2024-02-21T20:56:34;244.63;;;33.93;;
22378;SDS011;11357;49.990;7.370;2024-02-21T20:59:01;25.27;;;12.47;;
22378;SDS011;11357;49.990;7.370;2024-02-21T21:01:26;170.00;;;26.23;;
22378;SDS011;11357;49.990;7.370;2024-02-21T21:03:52;36.57;;;10.67;;
22378;SDS011;11357;49.990;7.370;2024-02-21T21:06:18;16.97;;;8.17;;
22378;SDS011;11357;49.990;7.370;2024-02-21T21:08:43;59.27;;;15.80;;
22378;SDS011;11357;49.990;7.370;2024-02-21T21:11:09;92.73;;;14.17;;
22378;SDS011;11357;49.990;7.370;2024-02-21T21:13:37;125.37;;;29.30;;
22378;SDS011;11357;49.990;7.370;2024-02-21T21:16:03;63.33;;;13.07;;
22378;SDS011;11357;49.990;7.370;2024-02-21T21:18:29;29.43;;;10.17;;
22378;SDS011;11357;49.990;7.370;2024-02-21T21:20:56;22.90;;;9.37;;
22378;SDS011;11357;49.990;7.370;2024-02-21T21:23:23;124.83;;;25.90;;
22378;SDS011;11357;49.990;7.370;2024-02-21T21:25:49;284.90;;;49.53;;
22378;SDS011;11357;49.990;7.370;2024-02-21T21:28:16;14.00;;;7.87;;
22378;SDS011;11357;49.990;7.370;2024-02-21T21:30:42;36.43;;;15.13;;
22378;SDS011;11357;49.990;7.370;2024-02-21T21:33:08;60.87;;;9.47;;
22378;SDS011;11357;49.990;7.370;2024-02-21T21:35:34;26.23;;;11.97;;
22378;SDS011;11357;49.990;7.370;2024-02-21T21:38:00;23.57;;;4.67;;
22378;SDS011;11357;49.990;7.370;2024-02-21T21:40:29;13.73;;;6.73;;
22378;SDS011;11357;49.990;7.370;2024-02-21T21:42:57;13.47;;;6.93;;
22378;SDS011;11357;49.990;7.370;2024-02-21T21:45:27;54.73;;;7.63;;
22378;SDS011;11357;49.990;7.370;2024-02-21T21:47:52;78.30;;;12.97;;
22378;SDS011;11357;49.990;7.370;2024-02-21T21:50:18;24.80;;;5.83;;
22378;SDS011;11357;49.990;7.370;2024-02-21T21:52:45;287.70;;;32.57;;
22378;SDS011;11357;49.990;7.370;2024-02-21T21:55:11;4.27;;;3.43;;
22378;SDS011;11357;49.990;7.370;2024-02-21T21:57:37;124.13;;;11.93;;
22378;SDS011;11357;49.990;7.370;2024-02-21T22:00:03;6.70;;;4.70;;
22378;SDS011;11357;49.990;7.370;2024-02-21T22:02:30;610.50;;;64.80;;
22378;SDS011;11357;49.990;7.370;2024-02-21T22:04:56;10.13;;;5.73;;
22378;SDS011;11357;49.990;7.370;2024-02-21T22:07:22;4.67;;;4.20;;
22378;SDS011;11357;49.990;7.370;2024-02-21T22:09:47;50.13;;;11.50;;
22378;SDS011;11357;49.990;7.370;2024-02-21T22:12:13;7.27;;;4.40;;
22378;SDS011;11357;49.990;7.370;2024-02-21T22:14:39;15.63;;;3.57;;
22378;SDS011;11357;49.990;7.370;2024-02-21T22:17:05;298.70;;;25.43;;
22378;SDS011;11357;49.990;7.370;2024-02-21T22:19:30;51.37;;;6.50;;
22378;SDS011;11357;49.990;7.370;2024-02-21T22:21:56;437.17;;;49.80;;
22378;SDS011;11357;49.990;7.370;2024-02-21T22:24:22;15.63;;;3.43;;
22378;SDS011;11357;49.990;7.370;2024-02-21T22:26:47;253.33;;;28.17;;
22378;SDS011;11357;49.990;7.370;2024-02-21T22:29:15;72.57;;;16.17;;
22378;SDS011;11357;49.990;7.370;2024-02-21T22:31:41;103.47;;;18.43;;
22378;SDS011;11357;49.990;7.370;2024-02-21T22:34:07;19.53;;;4.03;;
22378;SDS011;11357;49.990;7.370;2024-02-21T22:36:33;201.17;;;32.17;;
22378;SDS011;11357;49.990;7.370;2024-02-21T22:38:59;35.33;;;6.60;;
22378;SDS011;11357;49.990;7.370;2024-02-21T22:41:25;35.10;;;11.60;;
22378;SDS011;11357;49.990;7.370;2024-02-21T22:43:50;10.73;;;4.23;;
22378;SDS011;11357;49.990;7.370;2024-02-21T22:46:16;4.67;;;4.23;;
22378;SDS011;11357;49.990;7.370;2024-02-21T22:48:43;27.37;;;5.60;;
22378;SDS011;11357;49.990;7.370;2024-02-21T22:51:11;121.87;;;23.83;;
22378;SDS011;11357;49.990;7.370;2024-02-21T22:53:37;64.47;;;12.23;;
22378;SDS011;11357;49.990;7.370;2024-02-21T22:56:03;19.43;;;6.13;;
22378;SDS011;11357;49.990;7.370;2024-02-21T22:58:29;1.60;;;1.30;;
22378;SDS011;11357;49.990;7.370;2024-02-21T23:00:54;11.27;;;3.10;;
22378;SDS011;11357;49.990;7.370;2024-02-21T23:03:20;9.93;;;4.00;;
22378;SDS011;11357;49.990;7.370;2024-02-21T23:05:46;395.87;;;36.00;;
22378;SDS011;11357;49.990;7.370;2024-02-21T23:08:13;165.30;;;23.83;;
22378;SDS011;11357;49.990;7.370;2024-02-21T23:10:39;34.37;;;5.90;;
22378;SDS011;11357;49.990;7.370;2024-02-21T23:13:04;36.97;;;5.10;;
22378;SDS011;11357;49.990;7.370;2024-02-21T23:15:30;312.30;;;53.00;;
22378;SDS011;11357;49.990;7.370;2024-02-21T23:17:56;28.97;;;11.93;;
22378;SDS011;11357;49.990;7.370;2024-02-21T23:20:22;25.40;;;4.63;;
22378;SDS011;11357;49.990;7.370;2024-02-21T23:22:47;2.00;;;0.93;;
22378;SDS011;11357;49.990;7.370;2024-02-21T23:25:13;19.30;;;5.90;;
22378;SDS011;11357;49.990;7.370;2024-02-21T23:27:39;9.20;;;3.90;;
22378;SDS011;11357;49.990;7.370;2024-02-21T23:30:06;3.17;;;2.50;;
22378;SDS011;11357;49.990;7.370;2024-02-21T23:32:36;12.37;;;3.03;;
22378;SDS011;11357;49.990;7.370;2024-02-21T23:35:02;3.57;;;2.90;;
22378;SDS011;11357;49.990;7.370;2024-02-21T23:37:29;43.23;;;4.60;;
22378;SDS011;11357;49.990;7.370;2024-02-21T23:39:55;160.07;;;37.40;;
22378;SDS011;11357;49.990;7.370;2024-02-21T23:42:21;16.77;;;3.93;;
22378;SDS011;11357;49.990;7.370;2024-02-21T23:44:47;14.57;;;4.30;;
22378;SDS011;11357;49.990;7.370;2024-02-21T23:47:14;339.60;;;34.10;;
22378;SDS011;11357;49.990;7.370;2024-02-21T23:49:40;11.93;;;3.93;;
22378;SDS011;11357;49.990;7.370;2024-02-21T23:52:06;1569.40;;;164.17;;
22378;SDS011;11357;49.990;7.370;2024-02-21T23:54:31;74.17;;;7.40;;
22378;SDS011;11357;49.990;7.370;2024-02-21T23:56:57;3.47;;;3.00;;
22378;SDS011;11357;49.990;7.370;2024-02-21T23:59:23;39.83;;;4.00;;
